Time;durP1;ratioP1;P1;durP2;ratioP2;P2;SDS_P1;SDS_P2;PMS_P1;PMS_P2;Temp;Humidity;BMP_temperature;BMP_pressure;BME280_temperature;BME280_humidity;BME280_pressure;Samples;Min_cycle;Max_cycle;Signal;HPM_P1;HPM_P2
2022/06/09 00:01:02;;;;;;;1.70;1.60;;;15.10;99.90;;;;;;5075728;28;20728;-45
2022/06/09 00:03:35;;;;;;;4.43;2.20;;;15.10;99.90;;;;;;5063288;28;20202;-46
2022/06/09 00:06:02;;;;;;;1.93;1.87;;;15.10;99.90;;;;;;5071474;28;20208;-46
2022/06/09 00:08:31;;;;;;;2.60;1.83;;;15.00;99.90;;;;;;5070227;28;20233;-48
2022/06/09 00:11:01;;;;;;;4.63;1.60;;;15.00;99.90;;;;;;5075091;28;20193;-46
2022/06/09 00:13:29;;;;;;;2.60;2.20;;;15.00;99.90;;;;;;5084278;28;20205;-46
2022/06/09 00:15:56;;;;;;;1.53;1.10;;;15.00;99.90;;;;;;5071876;28;20205;-46
2022/06/09 00:18:23;;;;;;;2.67;1.87;;;15.00;99.90;;;;;;5070761;28;20267;-46
2022/06/09 00:20:52;;;;;;;3.03;1.80;;;15.00;99.90;;;;;;5072985;28;20615;-45
2022/06/09 00:23:19;;;;;;;3.30;1.90;;;15.00;99.90;;;;;;5078533;28;20284;-46
2022/06/09 00:25:47;;;;;;;2.03;1.47;;;15.00;99.90;;;;;;5078464;28;20204;-46
2022/06/09 00:28:15;;;;;;;1.40;1.30;;;15.00;99.90;;;;;;5076588;28;20224;-45
2022/06/09 00:30:42;;;;;;;2.63;1.70;;;15.00;99.90;;;;;;5070261;28;20258;-45
2022/06/09 00:33:09;;;;;;;2.40;2.20;;;15.00;99.90;;;;;;5073340;28;20201;-46
2022/06/09 00:35:37;;;;;;;1.40;1.40;;;15.00;99.90;;;;;;5077341;28;20624;-46
2022/06/09 00:38:05;;;;;;;1.50;0.80;;;15.00;99.90;;;;;;5063582;28;20274;-45
2022/06/09 00:40:33;;;;;;;0.60;0.60;;;15.00;99.90;;;;;;5071141;28;20917;-46
2022/06/09 00:43:01;;;;;;;2.10;0.93;;;14.90;99.90;;;;;;5076521;28;20232;-45
2022/06/09 00:45:31;;;;;;;0.53;0.53;;;14.90;99.90;;;;;;5059449;28;20243;-45
2022/06/09 00:48:31;;;;;;;0.53;0.53;;;14.90;99.90;;;;;;5059721;28;20262;-45
2022/06/09 00:51:05;;;;;;;0.50;0.50;;;14.80;99.90;;;;;;5028836;28;20208;-46
2022/06/09 00:53:37;;;;;;;0.77;0.77;;;14.80;99.90;;;;;;5058988;28;20251;-45
2022/06/09 00:56:07;;;;;;;0.87;0.60;;;14.70;99.90;;;;;;5074327;28;20206;-45
2022/06/09 00:58:37;;;;;;;0.60;0.60;;;14.70;99.90;;;;;;5062840;28;20232;-45
2022/06/09 01:01:07;;;;;;;0.57;0.57;;;14.70;99.90;;;;;;5067019;28;20212;-45
2022/06/09 01:03:40;;;;;;;1.10;0.60;;;14.60;99.90;;;;;;5067761;28;20228;-46
2022/06/09 01:06:10;;;;;;;1.03;0.97;;;14.50;99.90;;;;;;5076804;28;20279;-46
2022/06/09 01:11:07;;;;;;;0.67;0.67;;;14.60;99.90;;;;;;5071979;22;20234;-51
2022/06/09 01:13:34;;;;;;;3.63;1.90;;;14.60;99.90;;;;;;5048098;28;20616;-51
2022/06/09 01:16:09;;;;;;;0.70;0.70;;;14.50;99.90;;;;;;5049419;28;20206;-50
2022/06/09 01:18:45;;;;;;;0.97;0.77;;;14.50;99.90;;;;;;5040319;28;20247;-51
2022/06/09 01:21:24;;;;;;;1.20;0.70;;;14.60;99.90;;;;;;5024599;28;20201;-51
2022/06/09 01:24:21;;;;;;;5.40;1.53;;;14.60;99.90;;;;;;5026106;28;20203;-51
2022/06/09 01:27:16;;;;;;;0.80;0.80;;;14.60;99.90;;;;;;5022789;28;20203;-49
2022/06/09 01:29:49;;;;;;;2.00;0.53;;;14.70;99.90;;;;;;5029090;28;20214;-51
2022/06/09 01:32:24;;;;;;;2.43;0.50;;;14.50;99.90;;;;;;5027303;28;20198;-51
2022/06/09 01:35:02;;;;;;;0.93;0.40;;;14.60;99.90;;;;;;5027908;28;20209;-52
2022/06/09 01:37:34;;;;;;;0.40;0.40;;;14.60;99.90;;;;;;5027478;28;20205;-51
2022/06/09 01:40:03;;;;;;;0.73;0.47;;;14.60;99.90;;;;;;5023715;28;20254;-51
2022/06/09 01:42:33;;;;;;;0.80;0.50;;;14.70;99.90;;;;;;5032090;28;20261;-51
2022/06/09 01:45:05;;;;;;;1.50;0.60;;;14.60;99.90;;;;;;5032772;28;20198;-51
2022/06/09 01:47:50;;;;;;;0.97;0.50;;;14.50;99.90;;;;;;5031289;28;20260;-51
2022/06/09 01:50:25;;;;;;;2.50;0.73;;;14.40;99.90;;;;;;5022733;28;20261;-51
2022/06/09 01:52:53;;;;;;;0.70;0.70;;;14.30;99.90;;;;;;5021674;28;20627;-51
2022/06/09 01:58:46;;;;;;;0.40;0.40;;;14.10;99.90;;;;;;5031498;28;20185;-51
2022/06/09 02:01:15;;;;;;;1.93;0.60;;;14.10;99.90;;;;;;5031949;28;20207;-51
2022/06/09 02:03:47;;;;;;;0.83;0.47;;;14.20;99.90;;;;;;5031531;28;20203;-50
2022/06/09 02:06:15;;;;;;;1.03;0.57;;;14.10;99.90;;;;;;5023160;28;20213;-52
2022/06/09 02:08:42;;;;;;;0.60;0.60;;;14.00;99.90;;;;;;5027805;28;20195;-51
2022/06/09 02:11:13;;;;;;;0.60;0.57;;;14.00;99.90;;;;;;5017004;28;20207;-51
2022/06/09 02:13:44;;;;;;;1.53;0.40;;;14.00;99.90;;;;;;5026576;28;20552;-50
2022/06/09 02:16:17;;;;;;;1.93;0.60;;;13.90;99.90;;;;;;5030972;28;20294;-51
2022/06/09 02:18:49;;;;;;;1.67;0.60;;;13.80;99.90;;;;;;5031175;28;20249;-51
2022/06/09 02:21:20;;;;;;;0.77;0.30;;;13.70;99.90;;;;;;5024759;28;20209;-51
2022/06/09 02:23:48;;;;;;;1.07;0.50;;;13.70;99.90;;;;;;5030966;28;20321;-51
2022/06/09 02:26:16;;;;;;;3.10;0.30;;;13.70;99.90;;;;;;5022811;28;20677;-51
2022/06/09 02:28:43;;;;;;;0.73;0.30;;;13.60;99.90;;;;;;5018738;28;20198;-52
2022/06/09 02:31:11;;;;;;;0.70;0.60;;;13.70;99.90;;;;;;5022934;28;20255;-51
2022/06/09 02:33:38;;;;;;;0.40;0.40;;;13.70;99.90;;;;;;5023110;28;20190;-51
2022/06/09 02:36:07;;;;;;;0.40;0.40;;;13.70;99.90;;;;;;5018853;28;20857;-51
2022/06/09 02:38:34;;;;;;;2.43;0.30;;;13.80;99.90;;;;;;5030599;28;20925;-51
2022/06/09 02:41:01;;;;;;;1.80;0.30;;;13.80;99.90;;;;;;5022481;28;20219;-52
2022/06/09 02:43:28;;;;;;;1.27;0.40;;;13.80;99.90;;;;;;5030704;28;20268;-52
2022/06/09 02:45:56;;;;;;;0.70;0.50;;;13.80;99.90;;;;;;5021638;28;20214;-52
2022/06/09 02:48:24;;;;;;;1.50;0.50;;;13.80;99.90;;;;;;5028174;28;20198;-52
2022/06/09 02:50:52;;;;;;;0.50;0.30;;;13.70;99.90;;;;;;5024790;28;20225;-52
2022/06/09 02:53:21;;;;;;;0.83;0.20;;;13.80;99.90;;;;;;5022799;28;20197;-52
2022/06/09 02:55:48;;;;;;;0.50;0.30;;;13.70;99.90;;;;;;5029361;28;20221;-52
2022/06/09 02:58:15;;;;;;;1.50;0.30;;;13.60;99.90;;;;;;5030935;28;20198;-52
2022/06/09 03:00:43;;;;;;;0.57;0.30;;;13.60;99.90;;;;;;5027284;28;20277;-51
2022/06/09 03:03:14;;;;;;;0.87;0.60;;;13.80;99.90;;;;;;5030613;28;20222;-51
2022/06/09 03:05:41;;;;;;;0.43;0.40;;;13.80;99.90;;;;;;5034010;28;20202;-51
2022/06/09 03:08:08;;;;;;;0.27;0.27;;;13.80;99.90;;;;;;5027746;28;20206;-51
2022/06/09 03:10:38;;;;;;;0.40;0.40;;;13.80;99.90;;;;;;5020242;28;20307;-51
2022/06/09 03:13:06;;;;;;;0.20;0.20;;;13.80;99.90;;;;;;5028427;28;20203;-52
2022/06/09 03:15:34;;;;;;;0.20;0.20;;;13.70;99.90;;;;;;5025173;28;20582;-52
2022/06/09 03:18:00;;;;;;;0.40;0.20;;;13.80;99.90;;;;;;5026107;28;20214;-51
2022/06/09 03:20:31;;;;;;;0.20;0.20;;;13.80;99.90;;;;;;5029498;28;20218;-51
2022/06/09 03:22:58;;;;;;;1.37;0.33;;;13.80;99.90;;;;;;5028956;28;20222;-52
2022/06/09 03:25:25;;;;;;;0.17;0.17;;;13.80;99.90;;;;;;5023501;28;20241;-52
2022/06/09 03:27:54;;;;;;;0.20;0.20;;;13.80;99.90;;;;;;5033484;28;20237;-51
2022/06/09 03:30:21;;;;;;;2.10;0.13;;;13.80;99.90;;;;;;5033867;28;20222;-52
2022/06/09 03:32:48;;;;;;;0.10;0.10;;;13.80;99.90;;;;;;5027839;28;20195;-52
2022/06/09 03:35:16;;;;;;;0.10;0.10;;;13.70;99.90;;;;;;5034664;28;20202;-52
2022/06/09 03:37:43;;;;;;;0.57;0.10;;;13.70;99.90;;;;;;5033781;28;20198;-52
2022/06/09 03:40:16;;;;;;;0.10;0.10;;;13.70;99.90;;;;;;5028486;28;20218;-52
2022/06/09 03:42:43;;;;;;;0.20;0.20;;;13.60;99.90;;;;;;5031022;28;20221;-51
2022/06/09 03:45:12;;;;;;;0.27;0.17;;;13.60;99.90;;;;;;5033363;28;20280;-51
2022/06/09 03:47:39;;;;;;;1.30;0.10;;;13.50;99.90;;;;;;5032388;28;20206;-52
2022/06/09 03:50:08;;;;;;;0.10;0.10;;;13.60;99.90;;;;;;5031416;28;20652;-52
2022/06/09 03:52:35;;;;;;;2.10;0.70;;;13.50;99.90;;;;;;5029144;28;20214;-52
2022/06/09 03:55:02;;;;;;;0.70;0.63;;;13.60;99.90;;;;;;5026907;28;20202;-51
2022/06/09 03:57:29;;;;;;;0.57;0.10;;;13.50;99.90;;;;;;5031688;28;20249;-51
2022/06/09 03:59:56;;;;;;;0.20;0.10;;;13.50;99.90;;;;;;5034034;28;20226;-52
2022/06/09 04:02:25;;;;;;;0.30;0.10;;;13.50;99.90;;;;;;5033938;28;20356;-52
2022/06/09 04:04:52;;;;;;;0.40;0.20;;;13.50;99.90;;;;;;5033996;28;20618;-51
2022/06/09 04:07:22;;;;;;;0.20;0.20;;;13.50;99.90;;;;;;5034218;28;20245;-52
2022/06/09 04:09:49;;;;;;;0.20;0.20;;;13.50;99.90;;;;;;5033628;28;20229;-52
2022/06/09 04:12:16;;;;;;;0.20;0.20;;;13.40;99.90;;;;;;5028189;28;20616;-52
2022/06/09 04:14:43;;;;;;;0.10;0.10;;;13.40;99.90;;;;;;5027167;28;20198;-52
2022/06/09 04:17:12;;;;;;;0.93;0.20;;;13.50;99.90;;;;;;5025923;28;20214;-51
2022/06/09 04:19:41;;;;;;;3.97;0.30;;;13.50;99.90;;;;;;5033181;28;20218;-52
2022/06/09 04:22:09;;;;;;;0.13;0.13;;;13.50;99.90;;;;;;5031800;28;20199;-52
2022/06/09 04:24:36;;;;;;;0.10;0.10;;;13.50;99.90;;;;;;5033702;28;20673;-51
2022/06/09 04:27:04;;;;;;;0.20;0.20;;;13.60;99.90;;;;;;5032362;28;20232;-52
2022/06/09 04:29:31;;;;;;;0.10;0.10;;;13.60;99.90;;;;;;5031649;28;20295;-52
2022/06/09 04:31:58;;;;;;;0.17;0.17;;;13.50;99.90;;;;;;5027431;28;20268;-52
2022/06/09 04:34:25;;;;;;;0.13;0.03;;;13.50;99.90;;;;;;5030705;28;20206;-51
2022/06/09 04:36:54;;;;;;;0.03;0.03;;;13.50;99.90;;;;;;5031525;28;20195;-52
2022/06/09 04:39:21;;;;;;;0.20;0.20;;;13.50;99.90;;;;;;5028073;28;20499;-51
2022/06/09 04:41:48;;;;;;;0.13;0.13;;;13.60;99.90;;;;;;5031373;28;20260;-52
2022/06/09 04:44:15;;;;;;;0.87;0.13;;;13.50;99.90;;;;;;5030477;28;20234;-51
2022/06/09 04:46:42;;;;;;;0.30;0.20;;;13.50;99.90;;;;;;5031567;28;20753;-51
2022/06/09 04:49:10;;;;;;;1.47;0.60;;;13.50;99.90;;;;;;5028786;28;20214;-51
2022/06/09 04:51:37;;;;;;;0.33;0.33;;;13.60;99.90;;;;;;5031996;28;20217;-51
2022/06/09 04:54:05;;;;;;;0.97;0.27;;;13.60;99.90;;;;;;5032759;28;20201;-51
2022/06/09 04:56:32;;;;;;;0.23;0.20;;;13.60;99.90;;;;;;5032875;28;20221;-51
2022/06/09 04:58:59;;;;;;;1.10;0.30;;;13.60;99.90;;;;;;5031817;28;20203;-51
2022/06/09 05:01:28;;;;;;;0.50;0.30;;;13.70;99.90;;;;;;5029935;28;20203;-51
2022/06/09 05:03:55;;;;;;;0.70;0.40;;;13.70;99.90;;;;;;5022244;28;20219;-51
2022/06/09 05:06:25;;;;;;;1.47;0.50;;;13.70;99.90;;;;;;5027562;28;20302;-51
2022/06/09 05:08:54;;;;;;;0.93;0.50;;;13.80;99.90;;;;;;5029879;28;20214;-51
2022/06/09 05:11:23;;;;;;;0.60;0.30;;;13.80;99.90;;;;;;5021710;28;20209;-51
2022/06/09 05:13:50;;;;;;;0.73;0.40;;;13.80;99.90;;;;;;5028511;28;20237;-51
2022/06/09 05:16:18;;;;;;;0.50;0.38;;;13.80;99.90;;;;;;5027042;28;21217;-51
2022/06/09 05:18:45;;;;;;;0.57;0.30;;;13.80;99.90;;;;;;5026762;28;20817;-51
2022/06/09 05:21:12;;;;;;;0.83;0.40;;;13.90;99.90;;;;;;5024868;28;20191;-51
2022/06/09 05:23:41;;;;;;;0.30;0.30;;;13.90;99.90;;;;;;5029724;28;20214;-51
2022/06/09 05:26:08;;;;;;;0.93;0.20;;;14.00;99.90;;;;;;5027867;28;20203;-52
2022/06/09 05:28:37;;;;;;;0.20;0.20;;;14.00;99.90;;;;;;5033565;28;20209;-54
2022/06/09 05:31:04;;;;;;;0.23;0.13;;;14.00;99.90;;;;;;5028668;28;20249;-51
2022/06/09 05:33:31;;;;;;;0.23;0.20;;;13.90;99.90;;;;;;5028134;28;20195;-51
2022/06/09 05:35:58;;;;;;;0.30;0.30;;;13.80;99.90;;;;;;5031681;28;20222;-51
2022/06/09 05:46:42;;;;;;;0.20;0.20;;;13.80;99.90;;;;;;5030848;28;20204;-51
2022/06/09 05:49:10;;;;;;;0.47;0.20;;;13.80;99.90;;;;;;5029356;28;20773;-51
2022/06/09 05:51:37;;;;;;;0.40;0.40;;;13.80;99.90;;;;;;5021751;28;20219;-51
2022/06/09 05:54:05;;;;;;;0.30;0.30;;;13.90;99.90;;;;;;5028021;28;20664;-51
2022/06/09 05:56:32;;;;;;;2.40;0.80;;;13.90;99.90;;;;;;5029044;28;21004;-51
2022/06/09 05:59:00;;;;;;;2.10;0.70;;;14.00;99.90;;;;;;5026201;28;20675;-51
2022/06/09 06:01:28;;;;;;;1.80;0.50;;;14.20;99.90;;;;;;5030248;28;20288;-51
2022/06/09 06:03:55;;;;;;;1.70;0.40;;;14.50;99.90;;;;;;5033116;28;20288;-51
2022/06/09 06:06:35;;;;;;;0.60;0.60;;;14.70;99.90;;;;;;5029111;28;20205;-51
2022/06/09 06:09:04;;;;;;;1.83;0.30;;;14.80;99.90;;;;;;5025618;28;20213;-51
2022/06/09 06:11:31;;;;;;;1.57;0.20;;;14.80;99.90;;;;;;5024760;28;20213;-52
2022/06/09 06:13:58;;;;;;;1.23;0.17;;;14.70;99.90;;;;;;5025285;28;20203;-51
2022/06/09 06:16:26;;;;;;;0.30;0.30;;;14.70;99.90;;;;;;5027059;28;20214;-51
2022/06/09 06:18:54;;;;;;;0.40;0.20;;;14.60;99.90;;;;;;5025450;28;20252;-51
2022/06/09 06:21:21;;;;;;;0.43;0.37;;;14.50;99.90;;;;;;5027719;28;20268;-50
2022/06/09 06:23:49;;;;;;;1.30;0.30;;;14.40;99.90;;;;;;5021302;28;20783;-51
2022/06/09 06:26:16;;;;;;;1.77;0.30;;;14.40;99.90;;;;;;5021982;28;20225;-51
2022/06/09 06:28:43;;;;;;;0.73;0.73;;;14.30;99.90;;;;;;5017336;28;20257;-51
2022/06/09 06:31:11;;;;;;;2.20;0.30;;;14.20;99.90;;;;;;5024715;28;20668;-51
2022/06/09 06:33:39;;;;;;;1.73;0.40;;;14.20;99.90;;;;;;5022833;28;20277;-51
2022/06/09 06:36:08;;;;;;;0.27;0.27;;;14.10;99.90;;;;;;5027378;28;20205;-51
2022/06/09 06:38:35;;;;;;;1.57;0.23;;;14.20;99.90;;;;;;5029619;28;20207;-51
2022/06/09 06:41:05;;;;;;;0.20;0.20;;;14.40;99.90;;;;;;5027548;28;20570;-51
2022/06/09 06:43:32;;;;;;;0.20;0.20;;;14.80;99.90;;;;;;5021803;28;20250;-51
2022/06/09 06:46:00;;;;;;;0.93;0.30;;;15.00;99.90;;;;;;5026507;28;20683;-51
2022/06/09 06:48:27;;;;;;;2.07;0.30;;;15.00;99.90;;;;;;5028410;28;20719;-51
2022/06/09 06:50:55;;;;;;;3.70;1.00;;;15.00;99.90;;;;;;5027273;28;20754;-52
2022/06/09 06:53:22;;;;;;;0.53;0.33;;;15.00;99.90;;;;;;5025168;28;20205;-51
2022/06/09 06:55:50;;;;;;;0.23;0.20;;;15.10;99.90;;;;;;5020834;28;20308;-51
2022/06/09 06:58:17;;;;;;;0.70;0.40;;;15.20;99.90;;;;;;5026737;28;20205;-50
2022/06/09 07:00:44;;;;;;;0.30;0.30;;;15.30;99.90;;;;;;5030703;28;20218;-51
2022/06/09 07:03:12;;;;;;;1.80;0.30;;;15.20;99.90;;;;;;5028124;28;20214;-51
2022/06/09 07:05:39;;;;;;;3.30;0.30;;;15.10;99.90;;;;;;5031197;28;20630;-51
2022/06/09 07:08:08;;;;;;;1.07;0.30;;;15.00;99.90;;;;;;5028409;28;20195;-51
2022/06/09 07:10:36;;;;;;;0.50;0.10;;;14.80;99.90;;;;;;5062996;22;20308;-45
2022/06/09 07:13:04;;;;;;;1.90;0.30;;;14.80;99.90;;;;;;5048918;28;20190;-44
2022/06/09 07:15:31;;;;;;;0.20;0.20;;;14.70;99.90;;;;;;5044899;28;20201;-45
2022/06/09 07:18:01;;;;;;;0.20;0.20;;;14.70;99.90;;;;;;5044577;28;20247;-45
2022/06/09 07:20:28;;;;;;;0.33;0.20;;;14.70;99.90;;;;;;5050881;28;20217;-44
2022/06/09 07:22:55;;;;;;;0.40;0.40;;;14.70;99.90;;;;;;5050322;28;20606;-45
2022/06/09 07:25:26;;;;;;;2.20;0.40;;;14.60;99.90;;;;;;5045496;28;20284;-45
2022/06/09 07:27:54;;;;;;;0.30;0.30;;;14.50;99.90;;;;;;5047990;28;20583;-45
2022/06/09 07:30:23;;;;;;;1.90;0.37;;;14.50;99.90;;;;;;5050416;28;20210;-44
2022/06/09 07:32:54;;;;;;;0.20;0.20;;;14.50;99.90;;;;;;5050250;28;20672;-44
2022/06/09 07:35:24;;;;;;;0.30;0.30;;;14.50;99.90;;;;;;5049976;28;20259;-44
2022/06/09 07:37:51;;;;;;;0.27;0.27;;;14.40;99.90;;;;;;5039681;28;20206;-45
2022/06/09 07:40:18;;;;;;;0.57;0.40;;;14.40;99.90;;;;;;5048105;28;20244;-44
2022/06/09 07:42:50;;;;;;;2.57;0.30;;;14.40;99.90;;;;;;5036283;28;20619;-44
2022/06/09 07:45:17;;;;;;;0.40;0.40;;;14.40;99.90;;;;;;5032702;28;20229;-45
2022/06/09 07:47:46;;;;;;;1.30;0.50;;;14.40;99.90;;;;;;5035190;28;20277;-44
2022/06/09 07:50:14;;;;;;;0.50;0.40;;;14.40;99.90;;;;;;5049467;28;20250;-44
2022/06/09 07:52:41;;;;;;;1.10;0.23;;;14.40;99.90;;;;;;5044489;28;20255;-44
2022/06/09 07:55:09;;;;;;;1.23;0.40;;;14.40;99.90;;;;;;5045566;28;20194;-44
2022/06/09 07:57:36;;;;;;;0.30;0.30;;;14.50;99.90;;;;;;5046143;28;20281;-44
2022/06/09 08:00:07;;;;;;;0.60;0.30;;;14.40;99.90;;;;;;5034575;28;20231;-44
2022/06/09 08:02:34;;;;;;;0.40;0.40;;;14.40;99.90;;;;;;5039207;28;20336;-44
2022/06/09 08:05:00;;;;;;;1.10;0.60;;;14.30;99.90;;;;;;5048911;28;20699;-44
2022/06/09 08:07:28;;;;;;;1.30;0.40;;;14.30;99.90;;;;;;5042642;28;20255;-45
2022/06/09 08:09:54;;;;;;;0.53;0.53;;;14.30;99.90;;;;;;5034119;28;20711;-44
2022/06/09 08:12:22;;;;;;;1.47;0.30;;;14.30;99.90;;;;;;5046642;28;20225;-45
2022/06/09 08:14:49;;;;;;;0.87;0.50;;;14.40;99.90;;;;;;5045826;28;20244;-44
2022/06/09 08:17:17;;;;;;;0.83;0.57;;;14.40;99.90;;;;;;5054501;28;20210;-45
2022/06/09 08:19:46;;;;;;;0.30;0.30;;;14.60;99.90;;;;;;5048577;28;20218;-44
2022/06/09 08:22:13;;;;;;;2.50;0.40;;;14.60;99.90;;;;;;5046989;28;20205;-44
2022/06/09 08:24:40;;;;;;;1.57;0.40;;;14.50;99.90;;;;;;5044085;28;20708;-44
2022/06/09 08:27:07;;;;;;;0.77;0.33;;;14.40;99.90;;;;;;5053757;28;20252;-44
2022/06/09 08:29:34;;;;;;;3.43;0.40;;;14.30;99.90;;;;;;5054141;28;20209;-44
2022/06/09 08:32:01;;;;;;;0.20;0.20;;;14.20;99.90;;;;;;5050631;28;20732;-44
2022/06/09 08:34:30;;;;;;;0.20;0.10;;;14.20;99.90;;;;;;5041276;28;20554;-45
2022/06/09 08:36:57;;;;;;;0.00;0.00;;;14.20;99.90;;;;;;5052050;28;20198;-44
2022/06/09 08:39:24;;;;;;;0.20;0.00;;;14.20;99.90;;;;;;5053196;28;20237;-45
2022/06/09 08:42:19;;;;;;;1.00;0.10;;;14.20;99.90;;;;;;5044206;28;20706;-44
2022/06/09 08:44:51;;;;;;;0.23;0.10;;;14.00;99.90;;;;;;5043543;28;20214;-44
2022/06/09 08:47:28;;;;;;;0.00;0.00;;;14.10;99.90;;;;;;5048128;28;20198;-44
2022/06/09 08:50:04;;;;;;;0.00;0.00;;;14.20;99.90;;;;;;5041849;28;20226;-44
2022/06/09 08:52:51;;;;;;;0.40;0.40;;;14.10;99.90;;;;;;5049790;28;20212;-44
2022/06/09 08:55:38;;;;;;;1.27;0.80;;;14.10;99.90;;;;;;5041627;28;20549;-45
2022/06/09 08:58:14;;;;;;;1.20;1.10;;;14.30;99.90;;;;;;5049529;28;20208;-44
2022/06/09 09:00:44;;;;;;;0.87;0.60;;;14.30;99.90;;;;;;5045371;28;20220;-45
2022/06/09 09:03:23;;;;;;;0.13;0.13;;;14.40;99.90;;;;;;5041344;28;20722;-45
2022/06/09 09:05:58;;;;;;;0.60;0.20;;;14.50;99.90;;;;;;5038555;28;20255;-45
2022/06/09 09:08:25;;;;;;;0.70;0.60;;;14.60;99.90;;;;;;5043679;28;20194;-44
2022/06/09 09:11:00;;;;;;;0.30;0.30;;;14.70;99.90;;;;;;5051022;28;20836;-45
2022/06/09 09:13:44;;;;;;;0.30;0.30;;;14.70;99.90;;;;;;5044550;28;20616;-45
2022/06/09 09:16:20;;;;;;;3.17;1.73;;;14.70;99.90;;;;;;5043467;28;20202;-45
2022/06/09 09:18:53;;;;;;;2.40;2.13;;;14.90;99.90;;;;;;5051605;28;20351;-44
2022/06/09 09:21:30;;;;;;;0.70;0.70;;;14.90;99.90;;;;;;5051194;28;20665;-45
2022/06/09 09:24:04;;;;;;;0.60;0.30;;;15.90;99.90;;;;;;5051801;28;20614;-45
2022/06/09 09:26:49;;;;;;;0.20;0.20;;;17.30;99.90;;;;;;5052157;28;20251;-45
2022/06/09 09:29:26;;;;;;;0.20;0.10;;;18.00;99.90;;;;;;5040936;28;20205;-45
2022/06/09 09:31:57;;;;;;;0.13;0.13;;;18.10;99.90;;;;;;5032672;28;20210;-45
2022/06/09 09:34:26;;;;;;;0.20;0.20;;;18.50;99.90;;;;;;5032942;28;20272;-45
2022/06/09 09:36:58;;;;;;;1.07;0.10;;;18.80;99.90;;;;;;5032860;28;20210;-45
2022/06/09 09:39:33;;;;;;;0.63;0.20;;;18.90;99.90;;;;;;5032648;28;20203;-45
2022/06/09 09:42:12;;;;;;;0.20;0.20;;;19.40;99.90;;;;;;5045216;28;20209;-45
2022/06/09 09:44:39;;;;;;;0.17;0.10;;;20.40;99.90;;;;;;5044156;28;20691;-45
2022/06/09 09:47:07;;;;;;;0.70;0.30;;;21.40;99.90;;;;;;5052608;28;20671;-45
2022/06/09 09:49:39;;;;;;;0.20;0.20;;;21.70;99.90;;;;;;5052509;28;20213;-45
2022/06/09 09:52:36;;;;;;;0.53;0.30;;;21.50;99.90;;;;;;5052173;28;20206;-45
2022/06/09 09:55:04;;;;;;;0.80;0.30;;;20.90;99.90;;;;;;5048485;28;20287;-45
2022/06/09 09:57:33;;;;;;;0.90;0.20;;;20.40;99.90;;;;;;5048554;28;20220;-45
2022/06/09 10:00:00;;;;;;;0.53;0.20;;;19.40;99.90;;;;;;5052217;28;20218;-45
2022/06/09 10:08:38;;;;;;;0.50;0.10;;;17.60;99.90;;;;;;5032315;28;20244;-45
2022/06/09 10:13:59;;;;;;;0.30;0.30;;;15.70;99.90;;;;;;5032345;28;20197;-45
2022/06/09 10:16:29;;;;;;;3.53;0.50;;;15.40;99.90;;;;;;5037912;28;20339;-45
2022/06/09 10:19:02;;;;;;;0.30;0.30;;;15.30;99.90;;;;;;5043590;28;20252;-45
2022/06/09 10:21:49;;;;;;;0.40;0.40;;;15.10;99.90;;;;;;5049203;28;20224;-45
2022/06/09 10:24:21;;;;;;;0.87;0.30;;;15.30;99.90;;;;;;5039227;28;20703;-45
2022/06/09 10:26:54;;;;;;;0.30;0.20;;;15.50;99.90;;;;;;5043495;28;20251;-44
2022/06/09 10:29:28;;;;;;;1.47;0.40;;;15.70;99.90;;;;;;5041667;28;20225;-44
2022/06/09 10:32:02;;;;;;;0.30;0.27;;;15.70;99.90;;;;;;5039127;28;20232;-44
2022/06/09 10:34:39;;;;;;;0.53;0.40;;;15.80;99.90;;;;;;5039901;28;20249;-45
2022/06/09 10:37:19;;;;;;;0.20;0.20;;;15.80;99.90;;;;;;5031798;28;20710;-45
2022/06/09 10:39:53;;;;;;;0.40;0.23;;;15.80;99.90;;;;;;5039968;28;20249;-45
2022/06/09 10:42:30;;;;;;;1.23;0.30;;;15.90;99.90;;;;;;5031775;28;20260;-45
2022/06/09 10:45:14;;;;;;;1.17;0.50;;;16.20;99.90;;;;;;5031652;28;20319;-45
2022/06/09 10:56:20;;;;;;;0.50;0.33;;;19.40;99.90;;;;;;5043868;28;20193;-45
2022/06/09 10:58:53;;;;;;;0.47;0.27;;;19.30;99.90;;;;;;5050601;28;20233;-45
2022/06/09 11:01:27;;;;;;;1.90;0.20;;;19.00;99.90;;;;;;5045981;28;20214;-45
2022/06/09 11:03:55;;;;;;;0.60;0.50;;;19.00;99.90;;;;;;5047969;28;20202;-45
2022/06/09 11:06:38;;;;;;;0.33;0.33;;;19.40;99.90;;;;;;5042916;28;20201;-45
2022/06/09 11:09:18;;;;;;;1.67;0.10;;;19.10;99.90;;;;;;5051408;28;20347;-45
2022/06/09 11:11:56;;;;;;;0.97;0.67;;;19.00;99.90;;;;;;5050154;28;20254;-44
2022/06/09 11:14:47;;;;;;;0.30;0.30;;;19.10;99.90;;;;;;5040730;28;20202;-45
2022/06/09 11:17:36;;;;;;;0.20;0.20;;;18.90;99.90;;;;;;5045865;28;20197;-44
2022/06/09 11:20:22;;;;;;;0.47;0.20;;;18.80;99.90;;;;;;5044597;28;20284;-45
2022/06/09 11:22:57;;;;;;;0.47;0.27;;;18.40;99.90;;;;;;5038684;28;20213;-44
2022/06/09 11:25:38;;;;;;;0.70;0.27;;;17.70;99.90;;;;;;5034482;28;20210;-45
2022/06/09 11:28:19;;;;;;;0.23;0.23;;;17.30;99.90;;;;;;5048840;28;20256;-44
2022/06/09 11:31:08;;;;;;;0.30;0.27;;;17.00;99.90;;;;;;5051057;28;20629;-44
2022/06/09 11:33:50;;;;;;;0.30;0.30;;;16.80;99.90;;;;;;5034881;28;20194;-45
2022/06/09 11:36:23;;;;;;;1.67;0.50;;;16.70;99.90;;;;;;5034255;28;20221;-45
2022/06/09 11:38:57;;;;;;;1.17;0.50;;;16.60;99.90;;;;;;5034557;28;20252;-45
2022/06/09 11:41:34;;;;;;;0.50;0.47;;;16.70;99.90;;;;;;5050082;28;20275;-45
2022/06/09 11:44:14;;;;;;;0.30;0.30;;;16.70;99.90;;;;;;5053023;28;20727;-44
2022/06/09 11:46:43;;;;;;;0.60;0.60;;;16.50;99.90;;;;;;5048630;28;20256;-45
2022/06/09 11:49:16;;;;;;;1.20;0.40;;;16.70;99.90;;;;;;5049852;28;20271;-45
2022/06/09 11:51:43;;;;;;;0.77;0.30;;;16.80;99.90;;;;;;5049086;28;20201;-45
2022/06/09 11:54:40;;;;;;;1.60;0.30;;;16.70;99.90;;;;;;5052482;28;20255;-45
2022/06/09 11:57:27;;;;;;;0.57;0.30;;;16.60;99.90;;;;;;5041118;28;20206;-45
2022/06/09 12:00:05;;;;;;;0.50;0.50;;;16.60;99.90;;;;;;5035891;28;20272;-45
2022/06/09 12:02:57;;;;;;;0.27;0.27;;;16.80;99.90;;;;;;5039098;28;20231;-45
2022/06/09 12:05:29;;;;;;;1.70;0.20;;;17.10;99.90;;;;;;5052882;28;20734;-45
2022/06/09 12:08:31;;;;;;;0.40;0.20;;;17.50;99.90;;;;;;5044964;28;20669;-44
2022/06/09 12:11:14;;;;;;;1.07;0.20;;;17.80;99.90;;;;;;5044361;28;20776;-45
2022/06/09 12:14:00;;;;;;;0.20;0.20;;;17.90;99.90;;;;;;5047494;28;20201;-45
2022/06/09 12:16:31;;;;;;;0.23;0.23;;;18.20;99.90;;;;;;5052637;28;20196;-45
2022/06/09 12:19:15;;;;;;;0.43;0.20;;;17.90;99.90;;;;;;5052820;28;20229;-45
2022/06/09 12:21:45;;;;;;;0.20;0.20;;;17.50;99.90;;;;;;5051807;28;20206;-45
2022/06/09 12:24:35;;;;;;;3.20;0.60;;;17.70;99.90;;;;;;5051882;28;20206;-45
2022/06/09 12:27:22;;;;;;;0.53;0.27;;;17.90;99.90;;;;;;5052087;28;20198;-45
2022/06/09 12:30:26;;;;;;;0.20;0.20;;;18.20;99.90;;;;;;5051996;28;20320;-45
2022/06/09 12:33:15;;;;;;;1.33;0.30;;;18.30;99.90;;;;;;5049981;28;20733;-45
2022/06/09 12:35:50;;;;;;;0.30;0.27;;;18.50;99.90;;;;;;5048260;28;20198;-44
2022/06/09 12:38:25;;;;;;;0.40;0.20;;;18.40;99.90;;;;;;5044840;28;20227;-45
2022/06/09 12:40:56;;;;;;;0.77;0.37;;;18.40;99.90;;;;;;5041774;28;20232;-45
2022/06/09 12:43:33;;;;;;;2.93;0.30;;;18.20;99.90;;;;;;5052242;28;20619;-45
2022/06/09 12:46:07;;;;;;;0.63;0.30;;;18.00;99.90;;;;;;5046246;28;20218;-45
2022/06/09 12:48:35;;;;;;;0.50;0.50;;;18.00;99.90;;;;;;5043367;28;20202;-45
2022/06/09 12:51:08;;;;;;;0.60;0.60;;;17.90;99.90;;;;;;5050178;28;20314;-45
2022/06/09 12:53:38;;;;;;;1.13;0.37;;;17.80;99.90;;;;;;5052411;28;20202;-45
2022/06/09 12:56:21;;;;;;;1.50;0.73;;;17.60;99.90;;;;;;5052154;28;20945;-45
2022/06/09 12:58:51;;;;;;;1.83;0.60;;;17.30;99.90;;;;;;5049715;28;20194;-45
2022/06/09 13:01:20;;;;;;;0.40;0.40;;;17.30;99.90;;;;;;5048498;28;20268;-45
2022/06/09 13:03:50;;;;;;;1.57;0.50;;;17.30;99.90;;;;;;5051458;28;20190;-45
2022/06/09 13:06:29;;;;;;;2.53;0.40;;;17.30;99.90;;;;;;5035521;28;20214;-44
2022/06/09 13:08:59;;;;;;;1.37;0.40;;;17.10;99.90;;;;;;5049139;28;20259;-45
2022/06/09 13:14:20;;;;;;;1.13;0.20;;;17.10;99.90;;;;;;5051228;28;20251;-45
2022/06/09 13:16:49;;;;;;;2.37;0.27;;;16.70;99.90;;;;;;5043411;28;20226;-45
2022/06/09 13:19:19;;;;;;;0.87;0.30;;;16.60;99.90;;;;;;5051794;28;20202;-44
2022/06/09 13:21:48;;;;;;;0.97;0.40;;;16.70;99.90;;;;;;5047517;28;20210;-45
2022/06/09 13:24:26;;;;;;;0.50;0.30;;;16.60;99.90;;;;;;5032446;28;20248;-45
2022/06/09 13:26:54;;;;;;;0.97;0.20;;;16.60;99.90;;;;;;5032688;28;20226;-45
2022/06/09 13:31:53;;;;;;;1.27;0.50;;;16.60;99.90;;;;;;5066910;28;20220;-50
2022/06/09 13:34:26;;;;;;;1.07;0.30;;;16.70;99.90;;;;;;5067485;28;20197;-49
2022/06/09 13:37:04;;;;;;;1.17;0.40;;;16.70;99.90;;;;;;5066248;28;20593;-50
2022/06/09 13:39:38;;;;;;;0.40;0.40;;;16.70;99.90;;;;;;5067616;28;20196;-50
2022/06/09 13:42:17;;;;;;;0.30;0.30;;;16.70;99.90;;;;;;5071027;28;20589;-50
2022/06/09 13:44:51;;;;;;;1.60;0.30;;;16.60;99.90;;;;;;5070894;28;20742;-50
2022/06/09 13:47:22;;;;;;;0.40;0.40;;;16.60;99.90;;;;;;5065774;28;20193;-50